createdAt,value
2019-04-01T00:00:45.687Z,12.80
2019-04-01T00:03:30.244Z,12.70
2019-04-01T00:06:14.568Z,12.80
2019-04-01T00:08:59.163Z,12.70
2019-04-01T00:11:53.242Z,12.70
2019-04-01T00:14:46.724Z,12.60
2019-04-01T00:17:31.493Z,12.60
2019-04-01T00:20:16.134Z,12.50
2019-04-01T00:23:01.312Z,12.50
2019-04-01T00:25:55.050Z,12.50
2019-04-01T00:28:39.872Z,12.50
2019-04-01T00:31:24.710Z,12.40
2019-04-01T00:34:09.103Z,12.40
2019-04-01T00:36:54.048Z,12.40
2019-04-01T00:39:38.791Z,12.40
2019-04-01T00:45:42.283Z,12.50
2019-04-01T00:48:37.810Z,12.40
2019-04-01T00:51:22.379Z,12.40
2019-04-01T00:54:07.679Z,12.30
2019-04-01T00:57:01.689Z,12.30
2019-04-01T00:59:45.794Z,12.20
2019-04-01T01:02:30.178Z,12.30
2019-04-01T01:05:23.342Z,12.20
2019-04-01T01:08:08.047Z,12.10
2019-04-01T01:10:52.767Z,12.10
2019-04-01T01:13:37.548Z,12.10
2019-04-01T01:16:22.608Z,12.10
2019-04-01T01:19:07.534Z,12.00
2019-04-01T01:21:52.157Z,12.00
2019-04-01T01:24:36.921Z,11.90
2019-04-01T01:27:21.604Z,11.70
2019-04-01T01:30:06.211Z,11.70
2019-04-01T01:32:50.815Z,11.70
2019-04-01T01:35:44.278Z,11.70
2019-04-01T01:38:29.819Z,11.60
2019-04-01T01:41:14.867Z,11.60
2019-04-01T01:43:59.038Z,11.60
2019-04-01T01:46:52.675Z,11.70
2019-04-01T01:49:37.401Z,11.60
2019-04-01T01:52:22.126Z,11.60
2019-04-01T01:55:06.231Z,11.70
2019-04-01T01:57:59.691Z,11.50
2019-04-01T02:00:44.711Z,11.50
2019-04-01T02:03:39.881Z,11.40
2019-04-01T02:06:24.259Z,11.30
2019-04-01T02:09:08.618Z,11.30
2019-04-01T02:12:01.827Z,11.20
2019-04-01T02:14:47.047Z,11.20
2019-04-01T02:17:31.476Z,11.20
2019-04-01T02:20:16.464Z,11.20
2019-04-01T02:23:01.007Z,11.20
2019-04-01T02:25:45.475Z,11.10
2019-04-01T02:28:38.690Z,11.10
2019-04-01T02:31:23.679Z,11.10
2019-04-01T02:34:08.274Z,11.10
2019-04-01T02:36:53.288Z,10.90
2019-04-01T02:39:38.315Z,10.80
2019-04-01T02:42:32.347Z,10.80
2019-04-01T02:45:16.736Z,10.80
2019-04-01T02:48:01.492Z,10.70
2019-04-01T02:50:46.203Z,10.70
2019-04-01T02:53:31.289Z,10.60
2019-04-01T02:56:15.843Z,10.60
2019-04-01T02:59:00.477Z,10.60
2019-04-01T03:01:45.476Z,10.70
2019-04-01T03:04:30.517Z,10.50
2019-04-01T03:07:14.993Z,10.60
2019-04-01T03:09:59.492Z,10.60
2019-04-01T03:12:44.211Z,10.50
2019-04-01T03:15:28.895Z,10.40
2019-04-01T03:18:22.367Z,10.30
2019-04-01T03:21:06.859Z,10.20
2019-04-01T03:23:51.510Z,10.10
2019-04-01T03:26:36.057Z,10.10
2019-04-01T03:29:20.475Z,9.90
2019-04-01T03:32:14.024Z,9.90
2019-04-01T03:34:58.744Z,9.90
2019-04-01T03:37:43.426Z,9.80
2019-04-01T03:40:28.117Z,9.60
2019-04-01T03:43:12.587Z,9.50
2019-04-01T03:45:58.613Z,9.30
2019-04-01T03:48:52.527Z,9.10
2019-04-01T03:51:46.489Z,8.90
2019-04-01T03:54:30.721Z,8.80
2019-04-01T03:57:15.438Z,8.80
2019-04-01T04:00:00.827Z,8.70
2019-04-01T04:02:45.380Z,8.70
2019-04-01T04:05:29.688Z,8.60
2019-04-01T04:08:14.973Z,8.40
2019-04-01T04:10:59.584Z,8.30
2019-04-01T04:13:44.059Z,8.10
2019-04-01T04:16:28.707Z,8.00
2019-04-01T04:19:21.984Z,7.90
2019-04-01T04:22:06.662Z,7.80
2019-04-01T04:24:52.160Z,7.80
2019-04-01T04:27:45.441Z,7.70
2019-04-01T04:30:30.084Z,7.70
2019-04-01T04:33:14.637Z,7.70
2019-04-01T04:36:07.895Z,7.70
2019-04-01T04:38:52.627Z,7.70
2019-04-01T04:41:37.321Z,7.80
2019-04-01T04:44:21.979Z,7.90
2019-04-01T04:47:06.764Z,7.90
2019-04-01T04:49:51.082Z,7.80
2019-04-01T04:52:44.703Z,7.80
2019-04-01T04:55:38.607Z,7.80
2019-04-01T04:58:23.563Z,7.80
2019-04-01T05:01:08.464Z,7.90
2019-04-01T05:03:53.108Z,8.00
2019-04-01T05:06:37.501Z,8.00
2019-04-01T05:09:22.252Z,8.00
2019-04-01T05:12:07.144Z,7.90
2019-04-01T05:14:51.951Z,7.90
2019-04-01T05:17:36.568Z,7.70
2019-04-01T05:20:20.966Z,7.60
2019-04-01T05:23:14.815Z,7.60
2019-04-01T05:26:09.002Z,7.50
2019-04-01T05:29:02.819Z,7.50
2019-04-01T05:31:47.768Z,7.50
2019-04-01T05:34:31.900Z,7.50
2019-04-01T05:37:16.531Z,7.40
2019-04-01T05:40:01.190Z,7.40
2019-04-01T05:42:45.453Z,7.30
2019-04-01T05:45:30.876Z,7.40
2019-04-01T05:48:16.674Z,7.30
2019-04-01T05:51:11.147Z,7.30
2019-04-01T05:53:58.215Z,7.30
2019-04-01T05:56:44.363Z,7.30
2019-04-01T05:59:28.590Z,7.30
2019-04-01T06:02:12.907Z,7.30
2019-04-01T06:05:06.440Z,7.40
2019-04-01T06:07:51.231Z,7.40
2019-04-01T06:10:35.584Z,7.50
2019-04-01T06:13:20.758Z,7.60
2019-04-01T06:16:05.799Z,7.70
2019-04-01T06:18:59.523Z,7.80
2019-04-01T06:21:44.479Z,7.90
2019-04-01T06:24:29.140Z,8.20
2019-04-01T06:27:13.974Z,8.50
2019-04-01T06:29:59.376Z,8.70
2019-04-01T06:32:52.916Z,8.90
2019-04-01T06:35:37.459Z,9.10
2019-04-01T06:38:22.053Z,9.20
2019-04-01T06:41:06.824Z,9.30
2019-04-01T06:43:51.110Z,9.50
2019-04-01T06:46:44.498Z,9.60
2019-04-01T06:49:29.389Z,9.80
2019-04-01T06:52:13.899Z,10.00
2019-04-01T06:54:58.296Z,10.10
2019-04-01T06:57:51.522Z,10.10
2019-04-01T07:00:36.243Z,10.20
2019-04-01T07:03:20.924Z,10.20
2019-04-01T07:06:05.399Z,10.40
2019-04-01T07:08:50.099Z,10.40
2019-04-01T07:11:34.767Z,10.40
2019-04-01T07:14:19.467Z,10.50
2019-04-01T07:17:12.945Z,10.60
2019-04-01T07:19:57.353Z,10.70
2019-04-01T07:22:42.109Z,10.80
2019-04-01T07:25:26.546Z,10.90
2019-04-01T07:28:19.852Z,10.90
2019-04-01T07:31:04.651Z,11.10
2019-04-01T07:33:49.192Z,11.10
2019-04-01T07:36:33.786Z,11.20
2019-04-01T07:39:28.279Z,11.20
2019-04-01T07:42:12.932Z,11.20
2019-04-01T07:44:57.440Z,11.20
2019-04-01T07:47:41.951Z,11.40
2019-04-01T07:50:35.231Z,11.50
2019-04-01T07:53:20.028Z,11.60
2019-04-01T07:56:04.925Z,11.60
2019-04-01T07:58:49.855Z,11.60
2019-04-01T08:01:34.646Z,11.70
2019-04-01T08:04:19.207Z,11.80
2019-04-01T08:07:03.922Z,11.80
2019-04-01T08:09:48.567Z,11.80
2019-04-01T08:12:33.676Z,11.70
2019-04-01T08:15:21.217Z,11.70
2019-04-01T08:18:04.808Z,11.90
2019-04-01T08:20:49.451Z,11.90
2019-04-01T08:23:34.362Z,11.90
2019-04-01T08:26:18.823Z,12.00
2019-04-01T08:29:03.625Z,12.10
2019-04-01T08:31:48.227Z,12.30
2019-04-01T08:34:32.807Z,12.30
2019-04-01T08:37:26.405Z,12.40
2019-04-01T08:40:11.280Z,12.50
2019-04-01T08:42:55.930Z,12.60
2019-04-01T08:45:40.931Z,12.70
2019-04-01T08:48:25.715Z,12.80
2019-04-01T08:51:10.278Z,12.90
2019-04-01T08:53:54.643Z,13.00
2019-04-01T08:56:38.980Z,13.00
2019-04-01T08:59:31.987Z,13.00
2019-04-01T09:02:18.399Z,13.10
2019-04-01T09:05:03.677Z,13.40
2019-04-01T09:07:47.993Z,13.60
2019-04-01T09:10:32.937Z,13.70
2019-04-01T09:13:17.673Z,13.80
2019-04-01T09:16:02.788Z,14.00
2019-04-01T09:18:47.175Z,14.20
2019-04-01T09:21:41.734Z,14.40
2019-04-01T09:24:26.539Z,14.60
2019-04-01T09:27:11.095Z,14.80
2019-04-01T09:29:56.003Z,14.80
2019-04-01T09:32:40.599Z,15.00
2019-04-01T09:35:25.531Z,15.20
2019-04-01T09:38:10.328Z,15.50
2019-04-01T09:40:55.032Z,15.80
2019-04-01T09:43:39.879Z,16.00
2019-04-01T09:46:24.668Z,16.20
2019-04-01T09:49:09.275Z,16.40
2019-04-01T09:51:53.769Z,16.50
2019-04-01T09:54:46.933Z,16.80
2019-04-01T09:57:31.390Z,16.90
2019-04-01T10:00:24.738Z,17.10
2019-04-01T10:03:10.147Z,17.40
2019-04-01T10:06:03.631Z,17.50
2019-04-01T10:08:48.627Z,17.60
2019-04-01T10:11:33.571Z,17.80
2019-04-01T10:14:17.803Z,17.90
2019-04-01T10:17:02.236Z,18.10
2019-04-01T10:19:46.759Z,18.20
2019-04-01T10:22:40.194Z,18.20
2019-04-01T10:25:25.108Z,18.40
2019-04-01T10:28:09.234Z,18.60
2019-04-01T10:30:53.887Z,18.70
2019-04-01T10:33:46.923Z,18.90
2019-04-01T10:36:31.732Z,19.20
2019-04-01T10:39:16.819Z,19.40
2019-04-01T10:42:01.839Z,19.70
2019-04-01T10:44:46.031Z,19.80
2019-04-01T10:47:30.925Z,19.90
2019-04-01T10:50:15.611Z,20.00
2019-04-01T10:53:00.397Z,20.20
2019-04-01T10:55:45.292Z,20.40
2019-04-01T10:58:30.397Z,20.70
2019-04-01T11:01:14.864Z,20.80
2019-04-01T11:03:59.565Z,21.20
2019-04-01T11:06:44.426Z,21.30
2019-04-01T11:09:38.099Z,21.20
2019-04-01T11:12:15.535Z,21.30
2019-04-01T11:15:00.473Z,21.40
2019-04-01T11:17:45.136Z,21.60
2019-04-01T11:20:29.903Z,21.80
2019-04-01T11:23:14.441Z,22.00
2019-04-01T11:26:07.433Z,22.20
2019-04-01T11:28:52.584Z,22.50
2019-04-01T11:31:37.025Z,22.80
2019-04-01T11:34:31.714Z,22.90
2019-04-01T11:37:16.154Z,22.90
2019-04-01T11:40:00.820Z,23.00
2019-04-01T11:42:45.622Z,23.10
2019-04-01T11:45:30.639Z,23.30
2019-04-01T11:48:15.385Z,23.50
2019-04-01T11:51:00.008Z,23.70
2019-04-01T11:53:44.888Z,23.80
2019-04-01T11:56:29.724Z,24.00
2019-04-01T11:59:14.965Z,24.30
2019-04-01T12:01:59.620Z,24.40
2019-04-01T12:04:43.991Z,24.40
2019-04-01T12:07:28.632Z,24.40
2019-04-01T12:10:13.023Z,24.30
2019-04-01T12:13:06.591Z,24.40
2019-04-01T12:15:51.431Z,24.60
2019-04-01T12:18:35.924Z,24.80
2019-04-01T12:21:20.495Z,24.60
2019-04-01T12:24:05.255Z,24.60
2019-04-01T12:26:49.483Z,24.60
2019-04-01T12:29:37.740Z,24.60
2019-04-01T12:32:30.866Z,24.60
2019-04-01T12:35:16.026Z,24.30
2019-04-01T12:38:00.612Z,24.20
2019-04-01T12:40:45.156Z,24.40
2019-04-01T12:43:29.847Z,24.40
2019-04-01T12:46:14.359Z,24.30
2019-04-01T12:49:07.771Z,24.30
2019-04-01T12:51:52.429Z,24.30
2019-04-01T12:54:37.122Z,24.30
2019-04-01T12:57:22.186Z,24.60
2019-04-01T13:00:09.005Z,24.80
2019-04-01T13:03:03.375Z,24.50
2019-04-01T13:05:48.035Z,24.30
2019-04-01T13:08:32.495Z,24.10
2019-04-01T13:11:17.539Z,23.90
2019-04-01T13:14:02.171Z,23.80
2019-04-01T13:16:46.339Z,23.90
2019-04-01T13:19:39.927Z,23.70
2019-04-01T13:22:24.581Z,23.60
2019-04-01T13:25:09.519Z,23.40
2019-04-01T13:27:54.283Z,23.10
2019-04-01T13:30:38.951Z,22.80
2019-04-01T13:33:23.455Z,22.90
2019-04-01T13:36:08.776Z,23.20
2019-04-01T13:38:53.143Z,23.50
2019-04-01T13:41:42.606Z,24.00
2019-04-01T13:44:36.170Z,24.40
2019-04-01T13:47:10.827Z,24.60
2019-04-01T13:49:55.507Z,24.90
2019-04-01T13:52:40.383Z,25.20
2019-04-01T13:55:25.551Z,25.00
2019-04-01T13:58:10.901Z,24.20
2019-04-01T14:00:57.408Z,23.70
2019-04-01T14:03:50.650Z,23.30
2019-04-01T14:06:35.502Z,23.30
2019-04-01T14:09:20.850Z,23.20
2019-04-01T14:12:14.409Z,23.20
2019-04-01T14:14:58.904Z,23.10
2019-04-01T14:17:43.280Z,22.80
2019-04-01T14:20:36.599Z,22.50
2019-04-01T14:23:23.429Z,22.30
2019-04-01T14:26:07.061Z,22.40
2019-04-01T14:29:00.230Z,22.50
2019-04-01T14:31:44.880Z,22.90
2019-04-01T14:34:29.651Z,23.10
2019-04-01T14:37:14.140Z,23.30
2019-04-01T14:40:08.547Z,23.50
2019-04-01T14:42:52.963Z,23.60
2019-04-01T14:45:46.527Z,23.60
2019-04-01T14:48:30.994Z,23.50
2019-04-01T14:51:15.586Z,23.20
2019-04-01T14:54:00.227Z,22.90
2019-04-01T14:56:44.759Z,22.60
2019-04-01T14:59:37.995Z,22.20
2019-04-01T15:02:23.052Z,21.80
2019-04-01T15:05:07.798Z,21.50
2019-04-01T15:07:52.431Z,21.30
2019-04-01T15:10:39.377Z,21.20
2019-04-01T15:13:23.256Z,21.20
2019-04-01T15:16:07.989Z,21.20
2019-04-01T15:18:52.599Z,21.40
2019-04-01T15:21:47.502Z,21.50
2019-04-01T15:24:33.587Z,21.60
2019-04-01T15:27:18.359Z,21.50
2019-04-01T15:30:02.511Z,21.20
2019-04-01T15:32:56.110Z,21.10
2019-04-01T15:35:41.166Z,21.10
2019-04-01T15:38:25.683Z,21.10
2019-04-01T15:41:10.222Z,21.10
2019-04-01T15:43:54.923Z,21.00
2019-04-01T15:46:39.495Z,21.10
2019-04-01T15:49:24.378Z,21.10
2019-04-01T15:52:08.719Z,21.10
2019-04-01T15:55:02.556Z,21.00
2019-04-01T15:57:57.114Z,20.90
2019-04-01T16:00:50.503Z,20.90
2019-04-01T16:03:44.607Z,20.90
2019-04-01T16:06:29.104Z,20.80
2019-04-01T16:09:13.637Z,20.70
2019-04-01T16:12:06.966Z,20.60
2019-04-01T16:14:51.627Z,20.50
2019-04-01T16:17:36.187Z,20.30
2019-04-01T16:20:20.462Z,20.20
2019-04-01T16:23:13.935Z,20.10
2019-04-01T16:25:58.369Z,20.00
2019-04-01T16:28:42.883Z,19.80
2019-04-01T16:31:27.683Z,19.70
2019-04-01T16:34:12.226Z,19.70
2019-04-01T16:37:05.542Z,19.60
2019-04-01T16:39:50.490Z,19.60
2019-04-01T16:42:34.897Z,19.50
2019-04-01T16:45:19.548Z,19.50
2019-04-01T16:48:04.387Z,19.50
2019-04-01T16:50:50.487Z,19.40
2019-04-01T16:53:46.139Z,19.30
2019-04-01T16:56:39.306Z,19.20
2019-04-01T16:59:23.756Z,19.10
2019-04-01T17:02:17.833Z,19.00
2019-04-01T17:05:03.467Z,18.90
2019-04-01T17:07:48.366Z,18.70
2019-04-01T17:10:33.237Z,18.80
2019-04-01T17:13:27.210Z,18.70
2019-04-01T17:16:12.284Z,18.70
2019-04-01T17:18:57.801Z,18.60
2019-04-01T17:21:42.083Z,18.60
2019-04-01T17:24:27.973Z,18.50
2019-04-01T17:27:12.191Z,18.40
2019-04-01T17:30:06.122Z,18.30
2019-04-01T17:32:51.918Z,18.30
2019-04-01T17:35:36.396Z,18.20
2019-04-01T17:38:21.364Z,18.20
2019-04-01T17:41:05.862Z,18.20
2019-04-01T17:43:50.251Z,18.10
2019-04-01T17:46:43.864Z,18.10
2019-04-01T17:49:28.534Z,18.10
2019-04-01T17:52:13.362Z,18.00
2019-04-01T17:54:58.551Z,18.00
2019-04-01T17:57:43.123Z,17.90
2019-04-01T18:00:28.351Z,17.90
2019-04-01T18:03:29.974Z,17.90
2019-04-01T18:06:15.240Z,17.90
2019-04-01T18:09:09.235Z,17.90
2019-04-01T18:12:02.692Z,17.80
2019-04-01T18:14:48.004Z,17.80
2019-04-01T18:17:41.684Z,17.70
2019-04-01T18:20:26.714Z,17.70
2019-04-01T18:23:11.164Z,17.70
2019-04-01T18:25:55.638Z,17.70
2019-04-01T18:28:40.325Z,17.60
2019-04-01T18:31:25.776Z,17.60
2019-04-01T18:34:10.463Z,17.60
2019-04-01T18:36:55.201Z,17.50
2019-04-01T18:39:48.011Z,17.50
2019-04-01T18:42:26.903Z,17.30
2019-04-01T18:45:21.405Z,17.20
2019-04-01T18:48:06.644Z,17.10
2019-04-01T18:50:52.841Z,17.00
2019-04-01T18:53:46.127Z,16.80
2019-04-01T18:56:30.801Z,16.70
2019-04-01T18:59:15.422Z,16.60
2019-04-01T19:01:59.767Z,16.60
2019-04-01T19:04:53.628Z,16.60
2019-04-01T19:07:47.937Z,16.60
2019-04-01T19:10:43.178Z,16.60
2019-04-01T19:13:28.165Z,16.60
2019-04-01T19:16:23.104Z,16.60
2019-04-01T19:19:08.183Z,16.60
2019-04-01T19:21:52.976Z,16.30
2019-04-01T19:24:38.441Z,16.10
2019-04-01T19:27:31.734Z,15.90
2019-04-01T19:30:16.176Z,15.90
2019-04-01T19:33:09.732Z,15.90
2019-04-01T19:35:54.631Z,15.80
2019-04-01T19:38:48.515Z,15.70
2019-04-01T19:41:33.159Z,15.70
2019-04-01T19:44:17.979Z,15.70
2019-04-01T19:47:03.032Z,15.50
2019-04-01T19:49:47.573Z,15.20
2019-04-01T19:52:32.108Z,15.00
2019-04-01T19:55:16.675Z,14.90
2019-04-01T19:58:01.168Z,14.70
2019-04-01T20:00:55.043Z,14.60
2019-04-01T20:03:48.731Z,14.50
2019-04-01T20:06:33.720Z,14.40
2019-04-01T20:09:18.481Z,14.30
2019-04-01T20:12:01.700Z,14.20
2019-04-01T20:14:53.584Z,14.10
2019-04-01T20:17:57.119Z,13.90
2019-04-01T20:20:50.462Z,13.70
2019-04-01T20:23:35.268Z,13.60
2019-04-01T20:26:19.901Z,13.50
2019-04-01T20:29:14.971Z,13.40
2019-04-01T20:31:59.697Z,13.40
2019-04-01T20:34:56.464Z,13.40
2019-04-01T20:37:40.027Z,13.30
2019-04-01T20:40:24.763Z,13.20
2019-04-01T20:43:09.675Z,13.10
2019-04-01T20:45:54.528Z,13.10
2019-04-01T20:48:39.117Z,13.10
2019-04-01T20:51:23.700Z,13.00
2019-04-01T20:54:10.906Z,13.10
2019-04-01T20:57:05.639Z,13.10
2019-04-01T20:59:50.127Z,13.00
2019-04-01T21:02:35.151Z,12.80
2019-04-01T21:05:19.687Z,12.80
2019-04-01T21:08:13.367Z,12.80
2019-04-01T21:10:56.687Z,12.80
2019-04-01T21:13:50.112Z,12.80
2019-04-01T21:16:35.083Z,12.80
2019-04-01T21:19:19.683Z,12.70
2019-04-01T21:22:04.410Z,12.70
2019-04-01T21:24:49.315Z,12.50
2019-04-01T21:27:34.264Z,12.40
2019-04-01T21:30:20.147Z,12.30
2019-04-01T21:33:05.351Z,12.20
2019-04-01T21:35:48.357Z,12.10
2019-04-01T21:38:40.223Z,12.00
2019-04-01T21:41:25.467Z,11.80
2019-04-01T21:44:10.065Z,11.90
2019-04-01T21:47:03.722Z,12.00
2019-04-01T21:49:48.556Z,11.90
2019-04-01T21:52:33.151Z,11.80
2019-04-01T21:55:27.495Z,11.80
2019-04-01T21:58:12.183Z,11.70
2019-04-01T22:00:58.190Z,11.70
2019-04-01T22:03:44.267Z,11.60
2019-04-01T22:06:37.720Z,11.60
2019-04-01T22:09:22.612Z,11.60
2019-04-01T22:12:06.915Z,11.50
2019-04-01T22:14:51.679Z,11.40
2019-04-01T22:17:36.234Z,11.30
2019-04-01T22:20:21.027Z,11.20
2019-04-01T22:23:06.267Z,11.10
2019-04-01T22:25:53.572Z,11.10
2019-04-01T22:28:47.163Z,11.10
2019-04-01T22:31:31.823Z,11.10
2019-04-01T22:34:16.275Z,11.10
2019-04-01T22:37:01.183Z,11.00
2019-04-01T22:39:46.086Z,11.00
2019-04-01T22:42:30.432Z,10.90
2019-04-01T22:45:15.440Z,10.80
2019-04-01T22:47:59.698Z,10.90
2019-04-01T22:50:52.759Z,10.90
2019-04-01T22:53:37.383Z,10.90
2019-04-01T22:56:21.804Z,10.80
2019-04-01T22:59:15.145Z,10.70
2019-04-01T23:01:59.841Z,10.70
2019-04-01T23:04:44.498Z,10.70
2019-04-01T23:07:29.364Z,10.80
2019-04-01T23:10:14.174Z,10.70
2019-04-01T23:12:59.051Z,10.70
2019-04-01T23:15:44.224Z,10.70
2019-04-01T23:18:37.750Z,10.60
2019-04-01T23:21:22.543Z,10.50
2019-04-01T23:24:07.575Z,10.50
2019-04-01T23:26:52.058Z,10.40
2019-04-01T23:29:36.957Z,10.40
2019-04-01T23:32:21.340Z,10.40
2019-04-01T23:35:14.614Z,10.40
2019-04-01T23:37:59.659Z,10.50
2019-04-01T23:40:44.103Z,10.40
2019-04-01T23:43:28.654Z,10.40
2019-04-01T23:46:13.134Z,10.50
2019-04-01T23:49:06.310Z,10.40
2019-04-01T23:51:50.963Z,10.50
2019-04-01T23:54:35.946Z,10.40
2019-04-01T23:57:20.494Z,10.40
